Time;durP1;ratioP1;P1;durP2;ratioP2;P2;SDS_P1;SDS_P2;PMS_P1;PMS_P2;Temp;Humidity;BMP_temperature;BMP_pressure;BME280_temperature;BME280_humidity;BME280_pressure;Samples;Min_cycle;Max_cycle;Signal;HPM_P1;HPM_P2
2021/07/04 00:00:41;;;;;;;8.63;5.57;;;18.50;99.90;;;17.29;87.93;100874.88;3509725;40;102183;-41
2021/07/04 00:03:12;;;;;;;9.40;5.82;;;18.50;99.90;;;17.28;88.06;100875.97;3501176;40;103187;-41
2021/07/04 00:05:45;;;;;;;8.23;5.35;;;18.50;99.90;;;17.28;88.05;100874.06;3510036;40;102412;-42
2021/07/04 00:08:19;;;;;;;8.40;5.72;;;18.50;99.90;;;17.24;87.96;100859.13;3510503;40;102355;-45
2021/07/04 00:10:58;;;;;;;9.20;5.95;;;18.50;99.90;;;17.34;88.74;100850.97;3509700;40;102255;-41
2021/07/04 00:13:28;;;;;;;8.15;5.60;;;18.60;99.90;;;17.46;88.46;100848.06;3509648;40;102128;-41
2021/07/04 00:15:56;;;;;;;9.57;6.07;;;18.60;99.90;;;17.39;88.64;100842.75;3510297;40;102339;-40
2021/07/04 00:18:27;;;;;;;7.65;5.47;;;18.60;99.90;;;17.32;89.01;100839.34;3510253;40;102445;-41
2021/07/04 00:20:57;;;;;;;8.05;5.32;;;18.60;99.90;;;17.32;89.59;100836.59;3509945;40;103320;-40
2021/07/04 00:23:26;;;;;;;8.05;5.53;;;18.50;99.90;;;17.29;89.78;100826.09;3509857;40;102494;-41
2021/07/04 00:25:54;;;;;;;8.27;6.00;;;18.50;99.90;;;17.22;90.08;100812.50;3509728;40;102269;-40
2021/07/04 00:28:25;;;;;;;;;;;18.50;99.90;;;17.21;89.66;100823.78;3510789;40;103480;-40
2021/07/04 00:30:54;;;;;;;8.27;5.85;;;18.50;99.90;;;17.19;89.53;100820.44;3510147;40;102388;-40
2021/07/04 00:33:22;;;;;;;9.80;6.45;;;18.40;99.90;;;17.15;89.40;100824.81;3509639;40;102340;-40
2021/07/04 00:35:51;;;;;;;8.05;6.10;;;18.40;99.90;;;17.11;89.10;100822.56;3510247;40;103169;-40
2021/07/04 00:38:19;;;;;;;9.82;6.05;;;18.30;99.90;;;17.08;88.97;100828.59;3510251;40;102456;-41
2021/07/04 00:40:47;;;;;;;7.65;5.78;;;18.40;99.90;;;17.07;88.59;100821.41;3509824;40;103915;-40
2021/07/04 00:43:15;;;;;;;8.63;5.82;;;18.30;99.90;;;17.04;89.16;100821.94;3510120;40;102329;-42
2021/07/04 00:45:43;;;;;;;8.02;5.57;;;18.30;99.90;;;17.01;89.36;100814.19;3509678;40;103219;-40
2021/07/04 00:48:12;;;;;;;;;;;18.30;99.90;;;16.99;89.71;100810.84;3509989;40;104713;-42
2021/07/04 00:50:41;;;;;;;8.00;5.43;;;18.30;99.90;;;16.98;89.92;100809.19;3501002;40;103040;-41
2021/07/04 00:53:13;;;;;;;7.25;5.20;;;18.20;99.90;;;16.95;89.90;100816.00;3509042;40;102406;-40
2021/07/04 00:55:44;;;;;;;9.48;5.38;;;18.20;99.90;;;16.94;90.13;100814.34;3508737;40;102404;-41
2021/07/04 00:58:14;;;;;;;8.35;5.32;;;18.20;99.90;;;16.92;90.28;100810.16;3509069;40;104665;-41
2021/07/04 01:00:44;;;;;;;7.45;5.38;;;18.20;99.90;;;16.87;90.50;100810.09;3500717;40;102362;-40
2021/07/04 01:03:13;;;;;;;7.95;5.55;;;18.20;99.90;;;16.88;90.65;100818.13;3500719;40;102178;-40
2021/07/04 01:05:45;;;;;;;7.85;5.50;;;18.10;99.90;;;16.89;91.18;100818.94;3655411;22;103824;-41
2021/07/04 01:08:15;;;;;;;9.63;5.25;;;18.10;99.90;;;16.88;91.26;100817.25;3506130;40;103363;-42
2021/07/04 01:10:44;;;;;;;7.57;5.68;;;18.10;99.90;;;16.87;91.35;100818.34;3509176;40;104544;-42
2021/07/04 01:13:15;;;;;;;8.20;5.45;;;18.10;99.90;;;16.84;91.39;100819.69;3510873;40;102263;-42
2021/07/04 01:15:50;;;;;;;8.48;5.72;;;18.10;99.90;;;16.83;91.33;100805.09;3509948;40;103135;-45
2021/07/04 01:18:19;;;;;;;7.70;5.72;;;18.10;99.90;;;16.88;91.79;100803.50;3509178;40;102505;-42
2021/07/04 01:20:58;;;;;;;8.18;5.93;;;18.10;99.90;;;16.90;92.16;100806.81;3510791;40;104042;-42
2021/07/04 01:23:26;;;;;;;7.95;5.95;;;18.10;99.90;;;16.90;92.44;100810.41;3510805;40;102382;-43
2021/07/04 01:25:55;;;;;;;;;;;18.10;99.90;;;16.90;92.34;100795.81;3510647;40;102317;-42
2021/07/04 01:28:30;;;;;;;8.27;5.63;;;18.10;99.90;;;16.91;92.42;100803.81;3517563;40;102377;-45
2021/07/04 01:31:05;;;;;;;7.80;6.28;;;18.20;99.90;;;16.91;92.42;100801.06;3509771;40;103443;-42
2021/07/04 01:33:35;;;;;;;10.68;7.00;;;18.10;99.90;;;16.92;92.69;100799.13;3510249;40;103341;-42
2021/07/04 01:36:10;;;;;;;9.23;6.80;;;18.10;99.90;;;16.94;92.37;100802.47;3510242;40;102200;-43
2021/07/04 01:38:39;;;;;;;8.95;6.85;;;18.10;99.90;;;16.93;92.24;100798.88;3510684;40;102366;-42
2021/07/04 01:41:11;;;;;;;9.80;6.30;;;18.10;99.90;;;16.97;92.53;100796.44;3510233;40;104252;-44
2021/07/04 01:43:38;;;;;;;9.20;6.82;;;18.20;99.90;;;16.99;92.84;100794.31;3510155;40;103282;-42
2021/07/04 01:46:08;;;;;;;10.45;6.38;;;18.20;99.90;;;16.99;92.96;100794.31;3510661;40;102868;-42
2021/07/04 01:48:37;;;;;;;8.77;7.00;;;18.20;99.90;;;16.97;92.88;100791.78;3510286;40;102340;-42
2021/07/04 01:51:08;;;;;;;10.95;6.88;;;18.20;99.90;;;16.94;92.91;100783.16;3517257;40;103638;-43
2021/07/04 01:53:38;;;;;;;9.63;7.20;;;18.20;99.90;;;16.97;92.79;100790.91;3510237;40;102400;-42
2021/07/04 01:56:14;;;;;;;9.80;7.00;;;18.20;99.90;;;16.98;92.56;100798.16;3517100;40;104516;-42
2021/07/04 01:58:51;;;;;;;9.88;7.47;;;18.20;99.90;;;16.99;92.75;100796.22;3517201;40;104557;-42
2021/07/04 02:01:42;;;;;;;9.15;6.90;;;18.20;99.90;;;16.98;92.85;100787.13;3507265;40;102143;-42
2021/07/04 02:04:10;;;;;;;8.82;6.90;;;18.20;99.90;;;16.97;93.19;100796.44;3509667;40;102571;-42
2021/07/04 02:06:41;;;;;;;9.63;6.93;;;18.20;99.90;;;16.97;93.28;100801.94;3517010;40;106056;-42
2021/07/04 02:09:10;;;;;;;11.23;7.25;;;18.20;99.90;;;16.97;93.35;100796.44;3510573;40;102611;-42
2021/07/04 02:11:39;;;;;;;11.48;7.43;;;18.20;99.90;;;16.96;93.45;100792.00;3510426;40;102371;-42
2021/07/04 02:14:10;;;;;;;8.98;6.50;;;18.20;99.90;;;16.92;93.38;100797.22;3508814;40;102535;-42
2021/07/04 02:17:01;;;;;;;10.00;7.07;;;18.20;99.90;;;16.88;93.21;100786.97;3517059;40;102524;-42
2021/07/04 02:19:55;;;;;;;9.73;7.20;;;18.10;99.90;;;16.82;92.84;100781.38;3516952;40;103606;-42
2021/07/04 02:22:33;;;;;;;9.18;7.03;;;18.10;99.90;;;16.78;92.78;100779.38;3510365;40;104086;-42
2021/07/04 02:25:14;;;;;;;11.75;7.65;;;18.00;99.90;;;16.73;92.56;100771.06;3509867;40;102484;-42
2021/07/04 02:27:44;;;;;;;10.82;7.63;;;18.00;99.90;;;16.75;92.44;100772.50;3509962;40;103178;-42
2021/07/04 02:30:27;;;;;;;11.32;7.57;;;18.00;99.90;;;16.74;92.68;100779.09;3510007;40;102485;-44
2021/07/04 02:33:02;;;;;;;10.20;7.32;;;18.00;99.90;;;16.73;92.78;100780.19;3516851;40;103108;-42
2021/07/04 02:35:32;;;;;;;8.77;7.22;;;18.00;99.90;;;16.66;92.76;100774.00;3509678;40;102369;-42
2021/07/04 02:38:01;;;;;;;10.88;6.88;;;18.00;99.90;;;16.68;92.92;100774.56;3508546;40;104330;-43
2021/07/04 02:40:34;;;;;;;10.15;6.72;;;17.90;99.90;;;16.65;92.82;100773.19;3510265;40;102524;-42
2021/07/04 02:43:05;;;;;;;9.07;7.22;;;17.90;99.90;;;16.66;92.98;100774.00;3509573;40;105924;-42
2021/07/04 02:45:35;;;;;;;9.32;6.65;;;17.90;99.90;;;16.62;93.33;100761.84;3511090;40;102487;-42
2021/07/04 02:48:13;;;;;;;9.68;6.88;;;17.90;99.90;;;16.62;93.37;100773.69;3510137;40;103267;-42
2021/07/04 02:50:48;;;;;;;9.98;6.88;;;17.90;99.90;;;16.63;93.50;100769.00;3510973;40;103186;-42
2021/07/04 02:53:16;;;;;;;10.38;7.63;;;17.90;99.90;;;16.63;93.83;100769.84;3518099;40;105242;-42
2021/07/04 02:55:48;;;;;;;10.25;7.20;;;17.90;99.90;;;16.66;94.21;100771.25;3510180;40;102392;-42
2021/07/04 02:58:17;;;;;;;9.88;7.15;;;17.90;99.90;;;16.65;94.37;100764.91;3517803;40;104369;-42
2021/07/04 03:00:45;;;;;;;9.18;7.03;;;17.90;99.90;;;16.66;94.35;100774.00;3511245;40;102479;-44
2021/07/04 03:03:15;;;;;;;9.30;7.15;;;17.90;99.90;;;16.65;94.39;100773.19;3510191;40;103929;-42
2021/07/04 03:05:44;;;;;;;10.48;7.25;;;17.90;99.90;;;16.64;94.54;100768.75;3517654;40;102186;-42
2021/07/04 03:08:12;;;;;;;10.18;7.15;;;17.90;99.90;;;16.64;94.55;100768.75;3510823;40;104142;-42
2021/07/04 03:10:40;;;;;;;10.45;7.22;;;17.90;99.90;;;16.63;94.51;100764.34;3510910;40;102465;-42
2021/07/04 03:13:09;;;;;;;12.10;7.90;;;17.90;99.90;;;16.63;94.71;100764.34;3509876;40;102399;-42
2021/07/04 03:15:37;;;;;;;10.05;7.20;;;17.90;99.90;;;16.64;94.53;100767.91;3510784;40;102538;-42
2021/07/04 03:18:07;;;;;;;8.85;6.80;;;17.90;99.90;;;16.64;94.68;100763.25;3511069;40;102490;-42
2021/07/04 03:20:39;;;;;;;9.88;7.50;;;17.90;99.90;;;16.61;94.68;100757.41;3511135;40;103475;-42
2021/07/04 03:23:10;;;;;;;10.93;7.45;;;17.90;99.90;;;16.64;94.79;100763.25;3509904;40;106294;-42
2021/07/04 03:25:38;;;;;;;9.57;7.32;;;17.90;99.90;;;16.65;94.73;100766.81;3510983;40;102789;-42
2021/07/04 03:28:08;;;;;;;9.57;6.78;;;17.90;99.90;;;16.65;94.95;100761.31;3511110;40;104064;-42
2021/07/04 03:30:37;;;;;;;9.52;6.90;;;17.90;99.90;;;16.64;94.94;100759.66;3511503;40;102574;-42
2021/07/04 03:33:05;;;;;;;;;;;17.90;99.90;;;16.65;94.94;100764.91;3511676;40;103341;-42
2021/07/04 03:35:33;;;;;;;11.38;7.47;;;17.90;99.90;;;16.65;94.82;100770.44;3510916;40;102439;-45
2021/07/04 03:38:06;;;;;;;11.13;7.43;;;17.90;99.90;;;16.66;94.88;100762.97;3510979;40;102408;-42
2021/07/04 03:40:35;;;;;;;12.02;8.35;;;17.90;99.90;;;16.68;94.73;100763.56;3518260;40;102501;-41
2021/07/04 03:43:13;;;;;;;10.25;7.60;;;17.90;99.90;;;16.68;94.65;100761.66;3509929;40;103144;-42
2021/07/04 03:45:41;;;;;;;9.88;7.55;;;17.90;99.90;;;16.67;94.78;100764.66;3510904;40;102596;-39
2021/07/04 03:48:09;;;;;;;11.23;7.25;;;17.90;99.90;;;16.68;94.84;100766.31;3509714;40;102299;-44
2021/07/04 03:50:44;;;;;;;9.55;7.28;;;17.90;99.90;;;16.68;95.07;100766.31;3517861;40;103544;-45
2021/07/04 03:53:12;;;;;;;10.05;7.40;;;17.90;99.90;;;16.67;94.80;100771.00;3511158;40;102664;-42
2021/07/04 03:55:41;;;;;;;15.85;7.82;;;17.90;99.90;;;16.63;94.84;100764.34;3509308;40;102435;-42
2021/07/04 03:58:09;;;;;;;;;;;17.90;99.90;;;16.56;94.71;100751.84;3510401;40;104914;-42
2021/07/04 04:00:39;;;;;;;10.00;7.35;;;17.90;99.90;;;16.68;95.16;100769.91;3510928;40;102252;-42
2021/07/04 04:03:12;;;;;;;10.52;7.40;;;17.90;99.90;;;16.67;95.34;100759.13;3517939;40;102452;-42
2021/07/04 04:05:49;;;;;;;10.00;7.72;;;17.90;99.90;;;16.70;95.30;100769.63;3510650;40;102152;-42
2021/07/04 04:08:18;;;;;;;11.82;7.43;;;17.90;99.90;;;16.71;95.11;100774.09;3509709;40;102359;-41
2021/07/04 04:10:46;;;;;;;9.52;6.88;;;17.90;99.90;;;16.71;95.11;100774.09;3517497;40;102289;-43
2021/07/04 04:13:19;;;;;;;10.85;7.53;;;17.90;99.90;;;16.73;95.32;100771.91;3510864;40;102304;-42
2021/07/04 04:15:52;;;;;;;12.20;8.27;;;17.90;99.90;;;16.75;95.52;100769.72;3517321;40;102311;-46
2021/07/04 04:18:22;;;;;;;10.40;7.53;;;18.00;99.90;;;16.77;95.38;100775.81;3517474;40;103205;-42
2021/07/04 04:20:50;;;;;;;13.20;8.43;;;18.00;99.90;;;16.80;95.48;100778.06;3509469;40;103314;-42
2021/07/04 04:23:17;;;;;;;12.48;8.07;;;18.00;99.90;;;16.85;95.63;100776.44;3509170;40;104574;-43
2021/07/04 04:25:45;;;;;;;;;;;18.10;99.90;;;16.90;95.69;100773.75;3510912;40;102373;-41
2021/07/04 04:28:12;;;;;;;13.88;9.57;;;18.10;99.90;;;16.97;95.71;100775.25;3510732;40;103964;-39
2021/07/04 04:30:40;;;;;;;14.30;10.00;;;18.20;99.90;;;17.00;95.32;100773.09;3510780;40;102177;-40
2021/07/04 04:33:12;;;;;;;15.40;9.95;;;18.20;99.90;;;16.99;95.12;100777.78;3509663;40;105991;-42
2021/07/04 04:35:41;;;;;;;13.50;9.77;;;18.20;99.90;;;17.00;95.07;100781.34;3517544;40;102180;-45
2021/07/04 04:38:09;;;;;;;15.85;9.55;;;18.20;99.90;;;17.01;94.85;100781.09;3510485;40;102328;-39
2021/07/04 04:40:36;;;;;;;13.73;10.25;;;18.20;99.90;;;17.02;94.67;100788.28;3510982;40;103079;-39
2021/07/04 04:43:04;;;;;;;13.75;10.10;;;18.20;99.90;;;17.02;94.51;100780.03;3510593;40;102304;-42
2021/07/04 04:45:32;;;;;;;12.82;9.55;;;18.20;99.90;;;17.07;94.16;100779.22;3510394;40;102538;-44
2021/07/04 04:47:59;;;;;;;13.25;9.55;;;18.20;99.90;;;17.12;94.11;100784.81;3510410;40;102288;-42
2021/07/04 04:50:27;;;;;;;17.65;11.50;;;18.30;99.90;;;17.15;93.62;100781.56;3510778;40;102406;-42
2021/07/04 04:52:54;;;;;;;15.18;10.93;;;18.30;99.90;;;17.17;93.66;100782.13;3511014;40;102393;-43
2021/07/04 04:55:21;;;;;;;14.52;9.95;;;18.30;99.90;;;17.22;93.25;100771.16;3510325;40;102227;-42
2021/07/04 04:57:49;;;;;;;17.88;11.45;;;18.40;99.90;;;17.29;93.39;100781.97;3510332;40;102443;-42
2021/07/04 05:00:17;;;;;;;15.18;10.75;;;18.40;99.90;;;17.34;93.13;100778.44;3510382;40;102281;-45
2021/07/04 05:02:45;;;;;;;16.90;11.13;;;18.40;99.90;;;17.38;93.03;100780.41;3510491;40;104181;-42
2021/07/04 05:05:13;;;;;;;16.73;12.80;;;18.50;99.90;;;17.39;92.69;100775.75;3509483;40;102775;-42
2021/07/04 05:07:40;;;;;;;;;;;18.50;99.90;;;17.42;92.51;100771.63;3511135;40;104210;-43
2021/07/04 05:10:09;;;;;;;20.10;12.68;;;18.50;99.90;;;17.45;92.27;100769.19;3510663;40;102381;-42
2021/07/04 05:12:36;;;;;;;19.52;14.20;;;18.60;99.90;;;17.49;91.97;100775.00;3510313;40;104194;-42
2021/07/04 05:15:05;;;;;;;26.65;18.40;;;18.60;99.90;;;17.65;91.67;100767.72;3510283;40;102544;-42
2021/07/04 05:17:33;;;;;;;30.95;21.20;;;18.70;99.90;;;17.90;91.19;100763.50;3510335;40;102241;-42
2021/07/04 05:20:00;;;;;;;32.65;21.05;;;18.90;99.90;;;17.97;89.76;100773.22;3510510;40;102366;-40
2021/07/04 05:22:28;;;;;;;25.58;19.35;;;19.00;99.90;;;18.02;89.52;100777.16;3510495;40;102290;-39
2021/07/04 05:24:55;;;;;;;24.25;17.27;;;19.00;99.90;;;18.20;89.15;100771.22;3510387;40;102483;-40
2021/07/04 05:27:23;;;;;;;20.75;15.18;;;19.20;99.90;;;18.41;88.19;100771.38;3510571;40;103428;-40
2021/07/04 05:29:50;;;;;;;22.02;14.63;;;19.30;99.90;;;18.52;86.91;100770.31;3510684;40;102601;-43
2021/07/04 05:32:17;;;;;;;17.67;12.05;;;19.50;99.90;;;18.59;86.34;100769.28;3510287;40;102353;-42
2021/07/04 05:34:45;;;;;;;20.38;14.07;;;19.60;99.90;;;18.79;86.61;100768.53;3510816;40;102280;-42
2021/07/04 05:37:12;;;;;;;18.77;14.15;;;19.70;99.90;;;19.02;85.70;100761.75;3510481;40;102175;-42
2021/07/04 05:39:40;;;;;;;23.20;15.32;;;19.90;99.90;;;19.21;84.70;100753.78;3510420;40;102419;-39
2021/07/04 05:42:08;;;;;;;21.33;14.07;;;20.10;99.90;;;19.39;82.79;100757.13;3510503;40;102391;-39
2021/07/04 05:44:35;;;;;;;20.98;14.05;;;20.20;99.90;;;19.55;80.57;100753.31;3510543;40;102532;-42
2021/07/04 05:47:03;;;;;;;19.50;14.15;;;20.40;99.90;;;19.71;80.50;100753.28;3510521;40;102238;-43
2021/07/04 05:49:31;;;;;;;;;;;20.50;99.90;;;19.85;80.19;100756.34;3511299;40;102715;-42
2021/07/04 05:51:58;;;;;;;19.00;13.55;;;20.60;99.90;;;20.05;79.93;100760.25;3510443;40;102364;-40
2021/07/04 05:54:25;;;;;;;17.55;12.63;;;20.80;99.90;;;20.24;79.50;100753.03;3509968;40;102452;-39
2021/07/04 05:56:53;;;;;;;18.27;12.77;;;21.00;99.90;;;20.49;78.86;100748.56;3510629;40;103186;-39
2021/07/04 05:59:20;;;;;;;17.85;12.63;;;21.20;99.90;;;20.65;76.32;100752.09;3510284;40;102266;-40
2021/07/04 06:01:48;;;;;;;18.65;13.02;;;21.40;99.90;;;20.88;75.30;100746.22;3510221;40;103201;-40
2021/07/04 06:04:15;;;;;;;16.38;11.25;;;21.60;99.90;;;21.22;76.43;100740.75;3510087;40;103385;-39
2021/07/04 06:06:43;;;;;;;17.02;11.80;;;21.90;99.90;;;21.60;76.20;100748.56;3510308;40;102323;-39
2021/07/04 06:09:10;;;;;;;16.25;10.93;;;22.20;99.90;;;21.84;72.39;100745.88;3510434;40;102462;-41
2021/07/04 06:11:37;;;;;;;17.05;10.50;;;22.40;99.90;;;21.83;69.31;100746.19;3510033;40;102823;-40
2021/07/04 06:14:05;;;;;;;13.48;9.20;;;22.50;99.90;;;21.65;68.98;100740.22;3510236;40;102252;-40
2021/07/04 06:16:32;;;;;;;13.32;9.65;;;22.50;99.90;;;21.52;70.74;100740.88;3510042;40;102333;-42
2021/07/04 06:19:00;;;;;;;11.25;8.68;;;22.40;99.90;;;21.33;71.09;100736.00;3510358;40;102380;-40
2021/07/04 06:21:27;;;;;;;13.73;9.05;;;22.30;99.90;;;21.13;70.35;100740.53;3510150;40;103797;-39
2021/07/04 06:23:54;;;;;;;12.10;7.88;;;22.20;99.90;;;21.13;72.53;100740.53;3510296;40;102455;-41
2021/07/04 06:26:22;;;;;;;13.45;7.60;;;22.10;99.90;;;21.30;71.44;100738.50;3509518;40;102250;-40
2021/07/04 06:28:49;;;;;;;12.85;8.50;;;22.20;99.90;;;21.32;70.93;100739.03;3510331;40;102128;-40
2021/07/04 06:31:17;;;;;;;15.20;8.20;;;22.20;99.90;;;21.55;70.15;100731.97;3509781;40;102202;-42
2021/07/04 06:33:46;;;;;;;10.95;7.72;;;22.40;99.90;;;21.53;70.97;100740.56;3510090;40;102295;-40
2021/07/04 06:36:13;;;;;;;11.75;8.20;;;22.40;99.90;;;21.81;72.15;100740.09;3509870;40;102379;-40
2021/07/04 06:38:41;;;;;;;14.13;8.63;;;22.60;99.90;;;21.62;67.77;100737.19;3510149;40;102200;-40
2021/07/04 06:41:08;;;;;;;11.90;7.88;;;22.50;99.90;;;21.54;68.77;100727.53;3509929;40;102336;-42
2021/07/04 06:43:36;;;;;;;11.30;8.43;;;22.50;99.90;;;21.67;69.41;100729.66;3509626;40;102297;-40
2021/07/04 06:46:07;;;;;;;10.85;7.55;;;22.50;99.90;;;21.67;69.42;100737.97;3509810;40;105146;-40
2021/07/04 06:48:36;;;;;;;10.55;7.25;;;22.40;99.90;;;21.62;69.49;100729.66;3509905;40;102429;-40
2021/07/04 06:51:07;;;;;;;10.23;7.75;;;22.40;99.90;;;21.55;69.83;100731.97;3509832;40;102231;-39
2021/07/04 06:53:36;;;;;;;11.55;8.02;;;22.40;99.90;;;21.42;70.23;100734.25;3509414;40;103692;-40
2021/07/04 06:56:04;;;;;;;11.13;7.68;;;22.30;99.90;;;21.38;70.92;100733.16;3509567;40;102466;-40
2021/07/04 06:58:32;;;;;;;11.68;7.85;;;22.30;99.90;;;21.29;70.08;100729.38;3509926;40;102891;-40
2021/07/04 07:01:00;;;;;;;10.90;7.35;;;22.20;99.90;;;21.17;71.10;100724.16;3509743;40;102278;-39
2021/07/04 07:03:27;;;;;;;11.95;7.57;;;22.10;99.90;;;21.03;71.43;100728.66;3509512;40;102290;-40
2021/07/04 07:05:55;;;;;;;11.88;7.68;;;22.00;99.90;;;21.01;72.01;100730.91;3640092;22;103317;-41
2021/07/04 07:08:22;;;;;;;;;;;22.00;99.90;;;21.05;72.06;100738.38;3503471;40;102388;-41
2021/07/04 07:10:50;;;;;;;11.98;6.63;;;22.00;99.90;;;21.16;71.53;100733.59;3498907;40;103098;-41
2021/07/04 07:13:18;;;;;;;12.07;7.28;;;22.00;99.90;;;21.30;70.86;100728.25;3499552;40;102190;-41
2021/07/04 07:15:46;;;;;;;13.35;8.68;;;22.10;99.90;;;21.27;70.04;100734.38;3490041;40;103258;-41
2021/07/04 07:18:14;;;;;;;13.27;7.72;;;22.20;99.90;;;21.45;72.13;100724.53;3499071;40;102416;-40
2021/07/04 07:20:41;;;;;;;;;;;22.30;99.90;;;21.63;72.00;100734.09;3499743;40;102302;-41
2021/07/04 07:23:09;;;;;;;12.25;7.90;;;22.40;99.90;;;21.81;70.05;100715.94;3499054;40;102258;-41
2021/07/04 07:25:43;;;;;;;12.20;8.07;;;22.60;99.90;;;22.10;71.02;100725.41;3498447;40;102384;-40
2021/07/04 07:28:10;;;;;;;;;;;22.80;99.90;;;22.25;69.88;100713.31;3500177;40;102481;-40
2021/07/04 07:30:47;;;;;;;11.35;7.85;;;23.00;99.90;;;22.25;69.89;100708.56;3491565;40;103293;-40
2021/07/04 07:33:18;;;;;;;12.65;7.80;;;23.00;99.90;;;22.44;66.91;100710.59;3491187;40;102475;-40
2021/07/04 07:35:47;;;;;;;;;;;23.20;99.90;;;22.76;65.98;100714.66;3500921;40;102297;-40
2021/07/04 07:38:15;;;;;;;10.38;6.88;;;23.40;99.90;;;22.89;66.25;100710.31;3500776;40;102323;-41
2021/07/04 07:40:42;;;;;;;9.38;6.38;;;23.50;99.90;;;22.96;64.14;100710.81;3500252;40;102205;-41
2021/07/04 07:43:10;;;;;;;10.75;7.35;;;23.70;99.90;;;23.02;65.99;100703.19;3500253;40;102782;-43
2021/07/04 07:45:40;;;;;;;8.95;6.07;;;23.70;99.90;;;23.15;65.33;100706.38;3500004;40;102453;-41
2021/07/04 07:48:10;;;;;;;10.40;6.40;;;23.80;99.90;;;23.05;65.23;100710.13;3499975;40;102508;-41
2021/07/04 07:50:53;;;;;;;10.30;6.35;;;23.80;99.90;;;22.91;65.48;100708.06;3500646;40;102724;-40
2021/07/04 07:53:21;;;;;;;;;;;23.80;99.90;;;22.87;64.00;100703.44;3501084;40;102430;-40
2021/07/04 07:55:49;;;;;;;10.73;6.88;;;23.70;99.90;;;23.32;67.33;100698.34;3500486;40;104003;-40
2021/07/04 07:58:19;;;;;;;9.55;6.40;;;23.90;99.90;;;23.54;65.74;100696.88;3490943;40;105333;-45
2021/07/04 08:00:53;;;;;;;10.13;7.05;;;24.10;99.90;;;23.39;65.09;100689.59;3500531;40;102195;-41
2021/07/04 08:03:20;;;;;;;8.38;6.05;;;24.10;99.90;;;23.30;63.71;100692.25;3500287;40;102506;-41
2021/07/04 08:05:48;;;;;;;10.57;6.60;;;24.10;99.90;;;23.27;64.58;100692.84;3500032;40;103172;-40
2021/07/04 08:08:15;;;;;;;10.20;6.57;;;24.10;99.90;;;23.29;65.91;100690.59;3500148;40;102239;-39
2021/07/04 08:10:43;;;;;;;;;;;24.00;99.90;;;23.36;62.77;100681.88;3500960;40;103318;-41
2021/07/04 08:13:11;;;;;;;8.82;6.20;;;24.10;99.90;;;23.64;63.47;100687.53;3500545;40;102218;-40
2021/07/04 08:15:40;;;;;;;10.48;7.10;;;24.30;99.90;;;23.81;60.17;100682.22;3500361;40;104076;-41
2021/07/04 08:18:08;;;;;;;11.20;6.20;;;24.50;99.90;;;23.99;60.61;100683.28;3500337;40;102579;-41
2021/07/04 08:20:35;;;;;;;12.13;6.78;;;24.60;99.90;;;23.92;60.48;100685.66;3499908;40;102387;-40
2021/07/04 08:23:03;;;;;;;9.48;6.88;;;24.80;99.90;;;23.96;60.26;100681.13;3500120;40;102444;-41
2021/07/04 08:25:31;;;;;;;10.88;6.78;;;24.70;99.90;;;24.13;62.41;100674.97;3499651;40;103482;-41
2021/07/04 08:27:58;;;;;;;9.27;6.47;;;;;;;24.38;62.77;100669.19;3500224;40;102216;-42
2021/07/04 08:30:27;;;;;;;8.98;6.20;;;;;;;24.94;62.49;100671.97;3499914;40;102490;-38
2021/07/04 08:32:54;;;;;;;8.02;5.40;;;;;;;25.04;60.59;100673.66;3499762;40;102588;-41
2021/07/04 08:35:22;;;;;;;9.88;6.28;;;;;;;24.80;57.78;100660.81;3499681;40;102223;-40
2021/07/04 08:37:50;;;;;;;7.63;5.63;;;;;;;25.01;61.05;100657.53;3500366;40;102301;-41
2021/07/04 08:40:18;;;;;;;10.20;6.43;;;;;;;24.92;58.07;100655.50;3499780;40;103317;-41
2021/07/04 08:42:46;;;;;;;9.65;6.53;;;;;;;24.76;60.29;100651.41;3500412;40;102455;-41
2021/07/04 08:45:14;;;;;;;9.13;6.68;;;;;;;24.89;60.66;100649.72;3499788;40;103412;-41
2021/07/04 08:47:42;;;;;;;8.35;5.63;;;;;;;24.98;61.47;100645.06;3498973;40;104408;-39
2021/07/04 08:50:12;;;;;;;7.72;5.65;;;;;;;25.04;62.54;100646.59;3500212;40;103979;-41
2021/07/04 08:52:41;;;;;;;7.45;5.00;;;;;;;25.46;60.29;100648.38;3500163;40;102399;-41
2021/07/04 08:55:10;;;;;;;7.85;6.15;;;;;;;25.70;58.08;100657.25;3499981;40;103306;-41
2021/07/04 08:57:39;;;;;;;7.72;4.90;;;;;;;25.68;57.69;100656.75;3500111;40;102173;-40
2021/07/04 09:00:09;;;;;;;7.13;5.07;;;;;;;25.55;58.74;100654.88;3500206;40;103350;-42
2021/07/04 09:02:39;;;;;;;9.10;5.70;;;;;;;25.50;56.88;100652.22;3499915;40;102448;-40
2021/07/04 09:05:11;;;;;;;10.82;5.60;;;;;;;25.42;58.61;100651.78;3500212;40;103602;-41
2021/07/04 09:07:41;;;;;;;7.85;5.50;;;;;;;25.24;57.92;100647.25;3500115;40;102499;-40
2021/07/04 09:10:15;;;;;;;8.45;5.50;;;;;;;25.01;59.09;100644.44;3499695;40;102972;-42
2021/07/04 09:12:53;;;;;;;7.97;5.72;;;;;;;24.82;57.81;100633.44;3499699;40;102470;-40
2021/07/04 09:15:28;;;;;;;6.50;4.55;;;;;;;24.71;59.97;100628.06;3500317;40;102587;-41
2021/07/04 09:17:57;;;;;;;8.15;5.97;;;;;;;24.89;60.95;100638.56;3500245;40;102214;-42
2021/07/04 09:20:34;;;;;;;7.22;5.10;;;;;;;24.95;62.35;100634.53;3499952;40;102312;-41
2021/07/04 09:23:03;;;;;;;9.55;5.35;;;;;;;24.73;60.64;100635.28;3500079;40;102466;-41
2021/07/04 09:25:38;;;;;;;7.78;5.18;;;;;;;24.54;60.89;100619.53;3499356;40;103159;-40
2021/07/04 09:28:11;;;;;;;8.40;4.85;;;;;;;24.35;60.60;100625.22;3499928;40;103474;-40
2021/07/04 09:30:47;;;;;;;9.00;5.20;;;;;;;24.17;62.01;100624.19;3500073;40;103119;-41
2021/07/04 09:33:19;;;;;;;7.18;5.32;;;;;;;24.01;63.11;100632.00;3500154;40;102369;-38
2021/07/04 09:36:05;;;;;;;8.50;5.72;;;;;;;23.86;61.86;100614.44;3500147;40;103304;-41
2021/07/04 09:38:35;;;;;;;8.20;5.22;;;;;;;23.77;61.80;100625.50;3499954;40;102586;-40
2021/07/04 09:41:05;;;;;;;8.98;5.00;;;;;;;23.64;63.68;100621.56;3499753;40;102679;-40
2021/07/04 09:43:35;;;;;;;8.80;4.93;;;;;;;23.59;63.72;100610.47;3499971;40;102265;-37
2021/07/04 09:46:08;;;;;;;7.80;5.05;;;;;;;23.57;63.29;100604.41;3499835;40;102204;-39
2021/07/04 09:48:38;;;;;;;7.20;4.72;;;;;;;23.57;62.73;100609.97;3500008;40;102656;-40
2021/07/04 09:51:26;;;;;;;7.93;4.60;;;;;;;23.55;63.64;100609.44;3499592;40;102237;-40
2021/07/04 09:53:59;;;;;;;8.13;5.30;;;;;;;23.60;63.62;100606.56;3499481;40;102520;-38
2021/07/04 09:56:34;;;;;;;6.53;4.50;;;;;;;23.67;64.60;100595.03;3499488;40;102359;-42
2021/07/04 09:59:04;;;;;;;9.27;5.15;;;;;;;23.87;61.66;100588.28;3499825;40;103360;-41
2021/07/04 10:01:38;;;;;;;7.30;4.53;;;;;;;24.36;62.03;100576.69;3499407;40;102166;-41
2021/07/04 10:04:09;;;;;;;7.00;5.00;;;;;;;24.83;64.34;100580.13;3499366;40;102284;-41
2021/07/04 10:06:50;;;;;;;7.85;5.28;;;;;;;25.13;59.75;100574.91;3499439;40;102348;-41
2021/07/04 10:09:20;;;;;;;8.02;4.43;;;;;;;25.38;60.46;100582.97;3499479;40;102452;-41
2021/07/04 10:11:49;;;;;;;6.68;4.47;;;;;;;25.79;58.85;100581.88;3499898;40;103405;-41
2021/07/04 10:14:18;;;;;;;8.05;4.85;;;;;;;25.77;54.90;100586.16;3499437;40;103314;-41
2021/07/04 10:16:47;;;;;;;6.13;4.00;;;;;;;25.99;52.46;100580.50;3500022;40;105129;-40
2021/07/04 10:19:22;;;;;;;5.85;3.90;;;;;;;26.21;54.09;100575.16;3499135;40;102516;-42
2021/07/04 10:21:56;;;;;;;5.45;3.70;;;;;;;26.38;53.29;100568.78;3499903;40;102332;-41
2021/07/04 10:24:25;;;;;;;6.88;4.40;;;;;;;26.22;52.93;100562.84;3499827;40;102198;-39
2021/07/04 10:26:55;;;;;;;4.80;3.45;;;;;;;25.84;52.39;100559.38;3499013;40;103227;-41
2021/07/04 10:29:27;;;;;;;4.32;3.15;;;;;;;25.70;53.03;100555.91;3490471;40;104340;-43